Norwood, Minnesota
Current Conditions -  °F | °C
As of 10:14 AM on Monday 24 Nov 2014 (Local Time) from KGYL Reporting Station
Broken Clouds Broken Clouds  
Wind Chill:   Ceiling: 1800
Heat Index: 20°   Visibility: 10mi
Dew Point: 15°   Wind: 21mph
Humidity: 80%   Direction: 290°WNW
Pressure: 29.49"   Gusts: 32mph
Location:  44.77°N, 93.93°W
Report Text: KGYL 241614Z AUTO 29018G28KT 10SM SCT011 BKN018 M06/M09 A2949 RMK AO2 T10651094
Loading
Personal Weather Stations






























Interactive Weather Map New forecast layout! Learn more

10-Day Weather Forecast

Advertisements
Track Severe Weather on mobile